createdAt,value
2018-11-04T00:01:47.573Z,5.70
2018-11-04T00:04:15.755Z,5.70
2018-11-04T00:06:43.893Z,5.70
2018-11-04T00:09:12.542Z,5.70
2018-11-04T00:11:40.944Z,5.70
2018-11-04T00:14:09.053Z,5.70
2018-11-04T00:16:37.145Z,5.70
2018-11-04T00:19:05.410Z,5.70
2018-11-04T00:21:33.645Z,5.80
2018-11-04T00:24:01.891Z,5.80
2018-11-04T00:26:30.018Z,5.80
2018-11-04T00:28:58.131Z,5.90
2018-11-04T00:31:26.364Z,5.90
2018-11-04T00:33:54.459Z,5.90
2018-11-04T00:36:22.617Z,5.90
2018-11-04T00:38:50.804Z,5.90
2018-11-04T00:41:19.205Z,5.90
2018-11-04T00:43:47.505Z,6.00
2018-11-04T00:46:15.744Z,6.00
2018-11-04T00:48:43.929Z,6.00
2018-11-04T00:51:12.609Z,6.00
2018-11-04T00:53:40.904Z,6.00
2018-11-04T00:56:09.037Z,6.00
2018-11-04T00:58:37.429Z,6.10
2018-11-04T01:01:06.069Z,6.10
2018-11-04T01:03:34.170Z,6.10
2018-11-04T01:06:02.428Z,6.10
2018-11-04T01:08:30.704Z,6.10
2018-11-04T01:10:58.852Z,6.10
2018-11-04T01:13:27.076Z,6.10
2018-11-04T01:15:55.357Z,6.10
2018-11-04T01:18:23.569Z,6.10
2018-11-04T01:20:51.834Z,6.10
2018-11-04T01:23:20.007Z,6.10
2018-11-04T01:25:48.152Z,6.20
2018-11-04T01:28:16.400Z,6.20
2018-11-04T01:30:44.720Z,6.20
2018-11-04T01:33:12.822Z,6.20
2018-11-04T01:35:40.901Z,6.20
2018-11-04T01:38:09.198Z,6.20
2018-11-04T01:40:37.437Z,6.30
2018-11-04T01:43:05.652Z,6.30
2018-11-04T01:45:33.918Z,6.30
2018-11-04T01:48:02.199Z,6.30
2018-11-04T01:50:30.382Z,6.30
2018-11-04T01:52:58.657Z,6.30
2018-11-04T01:55:26.940Z,6.30
2018-11-04T01:57:55.254Z,6.30
2018-11-04T02:00:23.633Z,6.30
2018-11-04T02:02:51.821Z,6.40
2018-11-04T02:05:19.954Z,6.40
2018-11-04T02:07:48.317Z,6.40
2018-11-04T02:10:16.465Z,6.40
2018-11-04T02:12:44.627Z,6.40
2018-11-04T02:15:13.505Z,6.40
2018-11-04T02:17:41.689Z,6.40
2018-11-04T02:20:11.090Z,6.50
2018-11-04T02:22:39.697Z,6.50
2018-11-04T02:25:08.481Z,6.50
2018-11-04T02:27:36.623Z,6.50
2018-11-04T02:30:05.101Z,6.50
2018-11-04T02:32:34.196Z,6.50
2018-11-04T02:35:02.374Z,6.50
2018-11-04T02:37:30.514Z,6.50
2018-11-04T02:39:58.625Z,6.50
2018-11-04T02:42:26.713Z,6.50
2018-11-04T02:44:55.860Z,6.50
2018-11-04T02:47:23.997Z,6.50
2018-11-04T02:49:53.128Z,6.60
2018-11-04T02:52:21.281Z,6.60
2018-11-04T02:54:49.537Z,6.50
2018-11-04T02:57:17.806Z,6.50
2018-11-04T02:59:46.836Z,6.50
2018-11-04T03:02:14.902Z,6.50
2018-11-04T03:04:43.244Z,6.50
2018-11-04T03:07:11.778Z,6.60
2018-11-04T03:09:40.917Z,6.50
2018-11-04T03:12:09.110Z,6.50
2018-11-04T03:14:37.299Z,6.50
2018-11-04T03:17:05.652Z,6.50
2018-11-04T03:19:34.389Z,6.50
2018-11-04T03:22:02.661Z,6.40
2018-11-04T03:24:31.816Z,6.50
2018-11-04T03:26:59.907Z,6.40
2018-11-04T03:29:28.244Z,6.40
2018-11-04T03:31:56.474Z,6.40
2018-11-04T03:34:24.610Z,6.40
2018-11-04T03:36:52.855Z,6.40
2018-11-04T03:39:21.283Z,6.40
2018-11-04T03:41:49.439Z,6.40
2018-11-04T03:44:17.592Z,6.40
2018-11-04T03:46:46.609Z,6.40
2018-11-04T03:49:14.733Z,6.40
2018-11-04T03:51:43.255Z,6.30
2018-11-04T03:54:11.366Z,6.40
2018-11-04T03:56:39.433Z,6.40
2018-11-04T03:59:07.817Z,6.40
2018-11-04T04:01:36.021Z,6.40
2018-11-04T04:04:04.143Z,6.40
2018-11-04T04:06:32.364Z,6.40
2018-11-04T04:09:00.915Z,6.40
2018-11-04T04:11:29.038Z,6.40
2018-11-04T04:13:57.179Z,6.40
2018-11-04T04:16:25.272Z,6.40
2018-11-04T04:18:53.499Z,6.40
2018-11-04T04:21:22.542Z,6.40
2018-11-04T04:23:50.638Z,6.40
2018-11-04T04:26:18.773Z,6.40
2018-11-04T04:28:46.963Z,6.40
2018-11-04T04:31:15.195Z,6.40
2018-11-04T04:33:43.699Z,6.40
2018-11-04T04:36:12.743Z,6.50
2018-11-04T04:38:41.333Z,6.40
2018-11-04T04:41:09.555Z,6.50
2018-11-04T04:43:38.432Z,6.50
2018-11-04T04:46:06.509Z,6.40
2018-11-04T04:48:34.643Z,6.40
2018-11-04T04:51:02.854Z,6.40
2018-11-04T04:53:31.803Z,6.40
2018-11-04T04:55:59.980Z,6.40
2018-11-04T04:58:28.224Z,6.40
2018-11-04T05:00:56.301Z,6.40
2018-11-04T05:03:25.697Z,6.40
2018-11-04T05:05:53.811Z,6.40
2018-11-04T05:08:21.978Z,6.40
2018-11-04T05:10:50.291Z,6.40
2018-11-04T05:13:18.465Z,6.40
2018-11-04T05:15:46.823Z,6.40
2018-11-04T05:18:14.920Z,6.40
2018-11-04T05:20:43.184Z,6.40
2018-11-04T05:23:11.387Z,6.30
2018-11-04T05:25:39.522Z,6.30
2018-11-04T05:28:08.150Z,6.30
2018-11-04T05:30:36.411Z,6.30
2018-11-04T05:33:04.513Z,6.30
2018-11-04T05:35:32.893Z,6.30
2018-11-04T05:38:01.046Z,6.30
2018-11-04T05:40:29.212Z,6.20
2018-11-04T05:42:57.393Z,6.20
2018-11-04T05:45:26.206Z,6.20
2018-11-04T05:47:54.313Z,6.20
2018-11-04T05:50:22.450Z,6.20
2018-11-04T05:52:50.557Z,6.20
2018-11-04T05:55:18.774Z,6.20
2018-11-04T05:57:46.883Z,6.20
2018-11-04T06:00:15.059Z,6.20
2018-11-04T06:02:43.229Z,6.20
2018-11-04T06:05:11.766Z,6.20
2018-11-04T06:07:40.266Z,6.30
2018-11-04T06:10:08.573Z,6.30
2018-11-04T06:12:38.042Z,6.30
2018-11-04T06:15:06.328Z,6.30
2018-11-04T06:17:34.459Z,6.30
2018-11-04T06:20:02.587Z,6.30
2018-11-04T06:22:30.805Z,6.30
2018-11-04T06:24:58.912Z,6.30
2018-11-04T06:27:26.994Z,6.30
2018-11-04T06:29:55.409Z,6.40
2018-11-04T06:32:23.549Z,6.30
2018-11-04T06:34:51.781Z,6.30
2018-11-04T06:37:19.912Z,6.40
2018-11-04T06:39:48.057Z,6.30
2018-11-04T06:42:16.292Z,6.30
2018-11-04T06:44:44.357Z,6.30
2018-11-04T06:47:12.623Z,6.30
2018-11-04T06:49:40.837Z,6.30
2018-11-04T06:52:09.117Z,6.30
2018-11-04T06:54:37.226Z,6.40
2018-11-04T06:57:06.079Z,6.30
2018-11-04T06:59:34.985Z,6.30
2018-11-04T07:02:03.190Z,6.40
2018-11-04T07:04:31.522Z,6.40
2018-11-04T07:06:59.646Z,6.40
2018-11-04T07:09:28.301Z,6.40
2018-11-04T07:11:57.216Z,6.50
2018-11-04T07:14:25.334Z,6.50
2018-11-04T07:16:53.540Z,6.50
2018-11-04T07:19:21.753Z,6.50
2018-11-04T07:21:49.860Z,6.50
2018-11-04T07:24:18.092Z,6.50
2018-11-04T07:26:46.210Z,6.50
2018-11-04T07:29:14.332Z,6.60
2018-11-04T07:31:42.419Z,6.60
2018-11-04T07:34:12.908Z,6.60
2018-11-04T07:36:41.011Z,6.60
2018-11-04T07:39:11.140Z,6.70
2018-11-04T07:41:39.524Z,6.70
2018-11-04T07:44:07.608Z,6.70
2018-11-04T07:46:35.843Z,6.70
2018-11-04T07:49:04.117Z,6.80
2018-11-04T07:51:32.524Z,6.80
2018-11-04T07:54:00.657Z,6.80
2018-11-04T07:56:28.868Z,6.80
2018-11-04T07:58:56.989Z,6.80
2018-11-04T08:01:25.151Z,6.80
2018-11-04T08:03:53.289Z,6.80
2018-11-04T08:06:21.404Z,6.90
2018-11-04T08:08:49.543Z,6.90
2018-11-04T08:11:17.677Z,6.90
2018-11-04T08:13:45.738Z,7.00
2018-11-04T08:16:13.981Z,7.10
2018-11-04T08:18:42.485Z,7.10
2018-11-04T08:21:10.802Z,7.20
2018-11-04T08:23:38.949Z,7.10
2018-11-04T08:26:07.135Z,7.20
2018-11-04T08:28:35.375Z,7.20
2018-11-04T08:31:03.569Z,7.30
2018-11-04T08:33:31.717Z,7.30
2018-11-04T08:35:59.859Z,7.20
2018-11-04T08:38:27.997Z,7.30
2018-11-04T08:40:56.731Z,7.30
2018-11-04T08:43:25.025Z,7.30
2018-11-04T08:45:53.360Z,7.30
2018-11-04T08:48:21.546Z,7.40
2018-11-04T08:50:50.023Z,7.30
2018-11-04T08:53:18.122Z,7.40
2018-11-04T08:55:46.387Z,7.30
2018-11-04T08:58:14.707Z,7.30
2018-11-04T09:00:42.972Z,7.30
2018-11-04T09:03:11.197Z,7.40
2018-11-04T09:05:39.337Z,7.50
2018-11-04T09:08:07.481Z,7.50
2018-11-04T09:10:35.793Z,7.40
2018-11-04T09:13:03.925Z,7.40
2018-11-04T09:15:32.112Z,7.40
2018-11-04T09:18:01.127Z,7.40
2018-11-04T09:20:29.354Z,7.40
2018-11-04T09:22:57.602Z,7.40
2018-11-04T09:25:25.824Z,7.50
2018-11-04T09:27:53.879Z,7.50
2018-11-04T09:30:22.117Z,7.50
2018-11-04T09:32:50.251Z,7.50
2018-11-04T09:35:18.452Z,7.50
2018-11-04T09:37:46.696Z,7.40
2018-11-04T09:40:14.923Z,7.50
2018-11-04T09:42:44.066Z,7.50
2018-11-04T09:45:12.217Z,7.50
2018-11-04T09:47:40.516Z,7.60
2018-11-04T09:50:09.774Z,7.60
2018-11-04T09:52:38.748Z,7.70
2018-11-04T09:55:07.027Z,7.70
2018-11-04T09:57:35.185Z,7.80
2018-11-04T10:00:03.393Z,7.80
2018-11-04T10:02:31.545Z,7.80
2018-11-04T10:04:59.663Z,7.80
2018-11-04T10:07:27.813Z,7.80
2018-11-04T10:09:55.934Z,7.80
2018-11-04T10:12:25.015Z,7.80
2018-11-04T10:14:53.219Z,7.90
2018-11-04T10:17:21.659Z,7.80
2018-11-04T10:19:50.517Z,7.80
2018-11-04T10:22:18.995Z,7.90
2018-11-04T10:24:47.398Z,7.90
2018-11-04T10:27:16.433Z,7.90
2018-11-04T10:29:45.848Z,7.90
2018-11-04T10:32:13.865Z,7.90
2018-11-04T10:34:42.101Z,7.90
2018-11-04T10:37:10.797Z,7.90
2018-11-04T10:39:39.444Z,8.00
2018-11-04T10:42:07.730Z,8.00
2018-11-04T10:44:35.845Z,8.00
2018-11-04T10:47:04.825Z,8.00
2018-11-04T10:49:32.984Z,8.00
2018-11-04T10:52:01.090Z,8.00
2018-11-04T10:54:29.281Z,8.00
2018-11-04T10:56:58.361Z,8.00
2018-11-04T10:59:26.693Z,8.00
2018-11-04T11:01:54.817Z,8.10
2018-11-04T11:04:23.963Z,8.10
2018-11-04T11:06:52.139Z,8.10
2018-11-04T11:09:21.835Z,8.10
2018-11-04T11:11:50.000Z,8.10
2018-11-04T11:14:18.248Z,8.20
2018-11-04T11:16:46.595Z,8.20
2018-11-04T11:19:15.074Z,8.10
2018-11-04T11:21:45.151Z,8.10
2018-11-04T11:24:13.230Z,8.20
2018-11-04T11:26:41.412Z,8.20
2018-11-04T11:29:09.569Z,8.20
2018-11-04T11:31:37.681Z,8.20
2018-11-04T11:34:05.878Z,8.20
2018-11-04T11:36:34.381Z,8.20
2018-11-04T11:39:02.514Z,8.20
2018-11-04T11:41:30.645Z,8.30
2018-11-04T11:43:58.756Z,8.30
2018-11-04T11:46:26.877Z,8.30
2018-11-04T11:48:55.061Z,8.30
2018-11-04T11:51:23.170Z,8.30
2018-11-04T11:53:52.885Z,8.30
2018-11-04T11:56:21.137Z,8.30
2018-11-04T11:58:49.305Z,8.30
2018-11-04T12:01:17.609Z,8.30
2018-11-04T12:03:45.793Z,8.30
2018-11-04T12:06:13.913Z,8.30
2018-11-04T12:08:41.989Z,8.40
2018-11-04T12:11:10.097Z,8.40
2018-11-04T12:13:38.358Z,8.40
2018-11-04T12:16:06.445Z,8.40
2018-11-04T12:18:34.595Z,8.30
2018-11-04T12:21:02.889Z,8.40
2018-11-04T12:23:31.830Z,8.30
2018-11-04T12:25:59.940Z,8.40
2018-11-04T12:28:28.034Z,8.40
2018-11-04T12:30:56.145Z,8.40
2018-11-04T12:33:24.182Z,8.40
2018-11-04T12:35:52.369Z,8.40
2018-11-04T12:38:20.532Z,8.40
2018-11-04T12:40:48.667Z,8.50
2018-11-04T12:43:16.906Z,8.40
2018-11-04T12:45:45.877Z,8.40
2018-11-04T12:48:14.017Z,8.40
2018-11-04T12:50:42.277Z,8.40
2018-11-04T12:53:10.441Z,8.40
2018-11-04T12:55:38.541Z,8.40
2018-11-04T12:58:06.685Z,8.40
2018-11-04T13:00:34.874Z,8.30
2018-11-04T13:03:02.995Z,8.30
2018-11-04T13:05:31.003Z,8.30
2018-11-04T13:07:59.082Z,8.30
2018-11-04T13:10:27.215Z,8.30
2018-11-04T13:12:55.527Z,8.30
2018-11-04T13:15:23.640Z,8.20
2018-11-04T13:17:51.749Z,8.20
2018-11-04T13:20:19.883Z,8.20
2018-11-04T13:22:48.081Z,8.10
2018-11-04T13:25:16.139Z,8.00
2018-11-04T13:27:44.317Z,8.00
2018-11-04T13:30:13.509Z,8.00
2018-11-04T13:32:41.864Z,7.90
2018-11-04T13:35:10.177Z,7.90
2018-11-04T13:37:38.360Z,7.80
2018-11-04T13:40:07.402Z,7.80
2018-11-04T13:42:35.537Z,7.70
2018-11-04T13:45:03.717Z,7.60
2018-11-04T13:47:31.821Z,7.60
2018-11-04T13:49:59.961Z,7.60
2018-11-04T13:52:28.147Z,7.50
2018-11-04T13:54:56.278Z,7.50
2018-11-04T13:57:24.463Z,7.40
2018-11-04T13:59:52.577Z,7.40
2018-11-04T14:02:20.708Z,7.30
2018-11-04T14:04:48.868Z,7.20
2018-11-04T14:07:17.002Z,7.20
2018-11-04T14:09:45.226Z,7.20
2018-11-04T14:12:13.385Z,7.10
2018-11-04T14:14:41.597Z,7.00
2018-11-04T14:17:09.813Z,7.00
2018-11-04T14:19:38.001Z,7.00
2018-11-04T14:22:06.081Z,6.90
2018-11-04T14:24:45.373Z,6.90
2018-11-04T14:27:13.476Z,6.90
2018-11-04T14:29:41.578Z,6.80
2018-11-04T14:32:09.846Z,6.80
2018-11-04T14:34:38.166Z,6.70
2018-11-04T14:37:06.213Z,6.70
2018-11-04T14:39:34.334Z,6.70
2018-11-04T14:42:02.565Z,6.70
2018-11-04T14:44:30.694Z,6.60
2018-11-04T14:46:58.889Z,6.60
2018-11-04T14:49:27.119Z,6.50
2018-11-04T14:51:56.137Z,6.50
2018-11-04T14:54:24.275Z,6.50
2018-11-04T14:56:52.494Z,6.50
2018-11-04T14:59:20.754Z,6.40
2018-11-04T15:01:49.028Z,6.40
2018-11-04T15:04:17.066Z,6.40
2018-11-04T15:06:45.169Z,6.30
2018-11-04T15:09:13.311Z,6.30
2018-11-04T15:11:41.393Z,6.20
2018-11-04T15:14:09.557Z,6.20
2018-11-04T15:16:37.743Z,6.20
2018-11-04T15:19:06.106Z,6.10
2018-11-04T15:21:34.297Z,6.10
2018-11-04T15:24:02.484Z,6.10
2018-11-04T15:26:30.785Z,6.00
2018-11-04T15:28:58.871Z,6.00
2018-11-04T15:31:27.769Z,6.00
2018-11-04T15:33:56.130Z,6.00
2018-11-04T15:36:24.269Z,5.90
2018-11-04T15:38:52.394Z,5.90
2018-11-04T15:41:20.597Z,5.90
2018-11-04T15:43:48.677Z,5.90
2018-11-04T15:46:16.932Z,5.90
2018-11-04T15:48:45.030Z,5.80
2018-11-04T15:51:13.199Z,5.80
2018-11-04T15:53:42.284Z,5.70
2018-11-04T15:56:10.703Z,5.60
2018-11-04T15:58:38.814Z,5.60
2018-11-04T16:01:07.127Z,5.60
2018-11-04T16:03:35.241Z,5.50
2018-11-04T16:06:04.317Z,5.50
2018-11-04T16:08:32.391Z,5.50
2018-11-04T16:11:00.473Z,5.50
2018-11-04T16:13:28.737Z,5.40
2018-11-04T16:15:57.045Z,5.40
2018-11-04T16:18:25.247Z,5.40
2018-11-04T16:20:53.326Z,5.30
2018-11-04T16:23:21.460Z,5.30
2018-11-04T16:25:49.800Z,5.30
2018-11-04T16:28:17.986Z,5.30
2018-11-04T16:30:46.549Z,5.30
2018-11-04T16:33:14.785Z,5.30
2018-11-04T16:35:43.758Z,5.30
2018-11-04T16:38:12.741Z,5.30
2018-11-04T16:40:40.952Z,5.30
2018-11-04T16:43:09.257Z,5.30
2018-11-04T16:45:37.358Z,5.30
2018-11-04T16:48:06.117Z,5.30
2018-11-04T16:50:35.599Z,5.20
2018-11-04T16:53:04.741Z,5.20
2018-11-04T16:55:32.992Z,5.20
2018-11-04T16:58:01.241Z,5.10
2018-11-04T17:00:29.401Z,5.20
2018-11-04T17:02:57.557Z,5.10
2018-11-04T17:05:26.598Z,5.10
2018-11-04T17:07:54.624Z,5.10
2018-11-04T17:10:22.801Z,5.10
2018-11-04T17:12:51.655Z,5.10
2018-11-04T17:15:19.778Z,5.10
2018-11-04T17:17:47.896Z,5.00
2018-11-04T17:20:17.159Z,5.10
2018-11-04T17:22:45.657Z,5.10
2018-11-04T17:25:13.941Z,5.00
2018-11-04T17:27:42.083Z,5.10
2018-11-04T17:30:11.663Z,5.10
2018-11-04T17:32:39.936Z,5.10
2018-11-04T17:35:08.729Z,5.00
2018-11-04T17:38:07.725Z,5.00
2018-11-04T17:40:35.802Z,5.00
2018-11-04T17:43:03.916Z,5.00
2018-11-04T17:45:32.237Z,5.00
2018-11-04T17:48:00.389Z,5.00
2018-11-04T17:50:28.501Z,4.90
2018-11-04T17:52:56.897Z,4.90
2018-11-04T17:55:25.065Z,4.90
2018-11-04T17:57:53.240Z,4.90
2018-11-04T18:00:21.541Z,4.90
2018-11-04T18:02:49.780Z,4.90
2018-11-04T18:05:18.191Z,4.90
2018-11-04T18:07:46.479Z,4.80
2018-11-04T18:10:15.497Z,4.80
2018-11-04T18:12:43.977Z,4.80
2018-11-04T18:15:13.601Z,4.80
2018-11-04T18:17:41.798Z,4.80
2018-11-04T18:20:10.588Z,4.70
2018-11-04T18:22:38.804Z,4.60
2018-11-04T18:25:07.418Z,4.60
2018-11-04T18:27:36.074Z,4.60
2018-11-04T18:30:04.482Z,4.60
2018-11-04T18:32:32.642Z,4.50
2018-11-04T18:35:00.899Z,4.50
2018-11-04T18:37:29.204Z,4.60
2018-11-04T18:39:57.281Z,4.50
2018-11-04T18:42:25.393Z,4.50
2018-11-04T18:44:53.621Z,4.50
2018-11-04T18:47:21.821Z,4.40
2018-11-04T18:49:49.933Z,4.40
2018-11-04T18:52:18.255Z,4.40
2018-11-04T18:54:46.509Z,4.50
2018-11-04T18:57:14.770Z,4.40
2018-11-04T18:59:43.857Z,4.40
2018-11-04T19:02:11.981Z,4.40
2018-11-04T19:04:40.060Z,4.30
2018-11-04T19:07:08.504Z,4.30
2018-11-04T19:09:36.614Z,4.30
2018-11-04T19:12:04.974Z,4.30
2018-11-04T19:14:33.441Z,4.30
2018-11-04T19:17:01.551Z,4.30
2018-11-04T19:19:29.883Z,4.30
2018-11-04T19:21:58.137Z,4.30
2018-11-04T19:24:26.245Z,4.30
2018-11-04T19:26:54.913Z,4.30
2018-11-04T19:29:23.045Z,4.30
2018-11-04T19:31:51.151Z,4.20
2018-11-04T19:34:19.153Z,4.20
2018-11-04T19:36:47.368Z,4.20
2018-11-04T19:39:15.481Z,4.20
2018-11-04T19:41:44.159Z,4.20
2018-11-04T19:44:12.326Z,4.20
2018-11-04T19:46:40.512Z,4.20
2018-11-04T19:49:08.594Z,4.20
2018-11-04T19:51:37.063Z,4.10
2018-11-04T19:54:05.580Z,4.10
2018-11-04T19:56:33.699Z,4.10
2018-11-04T19:59:01.829Z,4.10
2018-11-04T20:01:30.095Z,4.10
2018-11-04T20:03:58.304Z,4.10
2018-11-04T20:06:26.438Z,4.00
2018-11-04T20:08:59.869Z,4.00
2018-11-04T20:11:28.589Z,4.10
2018-11-04T20:14:01.941Z,4.10
2018-11-04T20:16:30.226Z,4.00
2018-11-04T20:19:03.644Z,4.00
2018-11-04T20:21:31.905Z,4.10
2018-11-04T20:24:04.913Z,4.00
2018-11-04T20:26:33.010Z,3.90
2018-11-04T20:29:01.239Z,3.90
2018-11-04T20:31:34.668Z,3.90
2018-11-04T20:34:03.684Z,3.80
2018-11-04T20:36:31.985Z,3.80
2018-11-04T20:39:05.659Z,3.80
2018-11-04T20:41:34.162Z,3.90
2018-11-04T20:44:03.356Z,3.80
2018-11-04T20:46:31.666Z,3.80
2018-11-04T20:49:05.043Z,3.80
2018-11-04T20:51:33.246Z,3.80
2018-11-04T20:54:01.475Z,3.70
2018-11-04T20:56:34.742Z,3.70
2018-11-04T20:59:02.922Z,3.70
2018-11-04T21:01:31.077Z,3.70
2018-11-04T21:03:59.344Z,3.70
2018-11-04T21:06:27.555Z,3.70
2018-11-04T21:08:55.661Z,3.70
2018-11-04T21:11:23.909Z,3.70
2018-11-04T21:13:52.115Z,3.70
2018-11-04T21:16:20.271Z,3.70
2018-11-04T21:18:48.549Z,3.60
2018-11-04T21:21:17.444Z,3.60
2018-11-04T21:23:46.405Z,3.60
2018-11-04T21:26:14.636Z,3.60
2018-11-04T21:28:42.872Z,3.60
2018-11-04T21:31:11.074Z,3.50
2018-11-04T21:33:39.833Z,3.50
2018-11-04T21:36:09.109Z,3.60
2018-11-04T21:38:37.241Z,3.50
2018-11-04T21:41:05.391Z,3.50
2018-11-04T21:43:33.711Z,3.50
2018-11-04T21:46:02.032Z,3.50
2018-11-04T21:48:30.241Z,3.50
2018-11-04T21:50:58.528Z,3.50
2018-11-04T21:53:26.873Z,3.40
2018-11-04T21:55:55.136Z,3.40
2018-11-04T21:58:23.302Z,3.40
2018-11-04T22:00:51.460Z,3.40
2018-11-04T22:03:19.934Z,3.40
2018-11-04T22:05:48.092Z,3.40
2018-11-04T22:08:16.289Z,3.40
2018-11-04T22:10:44.662Z,3.40
2018-11-04T22:13:12.686Z,3.40
2018-11-04T22:15:40.901Z,3.40
2018-11-04T22:18:09.082Z,3.30
2018-11-04T22:20:37.193Z,3.30
2018-11-04T22:23:05.321Z,3.40
2018-11-04T22:25:33.717Z,3.30
2018-11-04T22:28:01.857Z,3.30
2018-11-04T22:30:30.366Z,3.30
2018-11-04T22:32:58.510Z,3.30
2018-11-04T22:35:26.693Z,3.20
2018-11-04T22:37:55.509Z,3.20
2018-11-04T22:40:23.613Z,3.30
2018-11-04T22:42:52.550Z,3.20
2018-11-04T22:45:20.736Z,3.20
2018-11-04T22:47:48.902Z,3.20
2018-11-04T22:50:17.156Z,3.20
2018-11-04T22:52:45.401Z,3.20
2018-11-04T22:55:14.452Z,3.20
2018-11-04T22:57:42.985Z,3.20
2018-11-04T23:00:16.828Z,3.30
2018-11-04T23:02:45.694Z,3.20
2018-11-04T23:05:19.316Z,3.20
2018-11-04T23:07:47.526Z,3.20
2018-11-04T23:10:16.051Z,3.20
2018-11-04T23:12:44.289Z,3.20
2018-11-04T23:15:12.926Z,3.20
2018-11-04T23:17:41.065Z,3.20
2018-11-04T23:20:09.433Z,3.20
2018-11-04T23:22:37.909Z,3.20
2018-11-04T23:25:06.816Z,3.20
2018-11-04T23:27:35.026Z,3.30
2018-11-04T23:30:03.137Z,3.30
2018-11-04T23:32:31.377Z,3.30
2018-11-04T23:34:59.635Z,3.40
2018-11-04T23:37:27.873Z,3.40
2018-11-04T23:39:55.907Z,3.50
2018-11-04T23:42:24.622Z,3.50
2018-11-04T23:44:52.765Z,3.50
2018-11-04T23:47:20.877Z,3.50
2018-11-04T23:49:49.234Z,3.50
2018-11-04T23:52:17.434Z,3.50
2018-11-04T23:54:46.559Z,3.50
2018-11-04T23:57:14.689Z,3.50
2018-11-04T23:59:43.830Z,3.60
